Time;durP1;ratioP1;P1;durP2;ratioP2;P2;SDS_P1;SDS_P2;PMS_P1;PMS_P2;Temp;Humidity;BMP_temperature;BMP_pressure;BME280_temperature;BME280_humidity;BME280_pressure;Samples;Min_cycle;Max_cycle;Signal;HPM_P1;HPM_P2
2024/03/14 00:00:17;;;;;;;8.13;5.15;;;11.20;99.90;;;;;;5073828;28;20103;-57
2024/03/14 00:02:45;;;;;;;8.30;4.80;;;11.20;99.90;;;;;;5073699;28;20520;-54
2024/03/14 00:05:11;;;;;;;8.07;5.15;;;11.20;99.90;;;;;;5073793;28;20024;-56
2024/03/14 00:07:36;;;;;;;7.28;4.70;;;11.20;99.90;;;;;;5073450;28;20439;-53
2024/03/14 00:10:04;;;;;;;6.47;4.85;;;11.30;99.90;;;;;;5073737;28;20067;-55
2024/03/14 00:12:30;;;;;;;8.77;4.70;;;11.20;99.90;;;;;;5073507;28;20478;-58
2024/03/14 00:14:56;;;;;;;7.00;4.88;;;11.20;99.90;;;;;;5073580;28;20074;-56
2024/03/14 00:17:21;;;;;;;6.70;4.75;;;11.20;99.90;;;;;;5073285;28;20012;-55
2024/03/14 00:19:47;;;;;;;6.63;5.07;;;11.20;99.90;;;;;;5073385;28;20056;-54
2024/03/14 00:22:13;;;;;;;7.15;5.13;;;11.20;99.90;;;;;;5073319;28;20477;-56
2024/03/14 00:24:41;;;;;;;6.90;4.38;;;11.20;99.90;;;;;;5073474;28;20489;-56
2024/03/14 00:27:07;;;;;;;15.57;4.55;;;11.20;99.90;;;;;;5073564;28;20047;-55
2024/03/14 00:29:33;;;;;;;8.05;5.05;;;11.20;99.90;;;;;;5073478;28;20024;-55
2024/03/14 00:32:02;;;;;;;10.48;4.85;;;11.20;99.90;;;;;;5073175;28;20075;-56
2024/03/14 00:34:29;;;;;;;8.85;4.68;;;11.20;99.90;;;;;;5073125;28;20435;-54
2024/03/14 00:36:55;;;;;;;9.82;6.13;;;11.20;99.90;;;;;;5073111;28;20020;-54
2024/03/14 00:39:23;;;;;;;9.68;5.40;;;11.20;99.90;;;;;;5072827;28;20020;-55
2024/03/14 00:41:50;;;;;;;6.65;4.82;;;11.10;99.90;;;;;;5072803;28;20063;-56
2024/03/14 00:44:17;;;;;;;8.18;4.85;;;11.10;99.90;;;;;;5072943;28;20025;-55
2024/03/14 00:46:43;;;;;;;8.85;5.57;;;11.20;99.90;;;;;;5073028;28;20512;-55
2024/03/14 00:49:09;;;;;;;8.65;4.78;;;11.20;99.90;;;;;;5072533;28;20032;-54
2024/03/14 00:51:35;;;;;;;7.13;5.13;;;11.20;99.90;;;;;;5073002;28;20032;-55
2024/03/14 00:54:02;;;;;;;7.13;4.63;;;11.20;99.90;;;;;;5072777;28;20024;-56
2024/03/14 00:56:28;;;;;;;6.03;4.78;;;11.10;99.90;;;;;;5072714;28;20507;-53
2024/03/14 00:58:56;;;;;;;5.78;4.53;;;11.10;99.90;;;;;;5072539;28;20473;-55
2024/03/14 01:01:22;;;;;;;5.35;4.38;;;11.10;99.90;;;;;;5073042;28;20036;-55
2024/03/14 01:03:48;;;;;;;6.32;4.65;;;11.10;99.90;;;;;;5072819;28;20512;-56
2024/03/14 01:06:14;;;;;;;7.53;5.05;;;11.10;99.90;;;;;;5072469;28;20090;-55
2024/03/14 01:08:40;;;;;;;6.53;4.40;;;11.10;99.90;;;;;;5072356;28;20031;-54
2024/03/14 01:11:06;;;;;;;7.22;4.95;;;11.00;99.90;;;;;;5070804;28;20067;-53
2024/03/14 01:13:32;;;;;;;8.13;5.28;;;11.00;99.90;;;;;;5066972;28;20016;-54
2024/03/14 01:15:58;;;;;;;7.45;5.28;;;11.00;99.90;;;;;;5063919;28;20050;-55
2024/03/14 01:18:24;;;;;;;14.20;5.60;;;11.00;99.90;;;;;;5072375;28;20107;-55
2024/03/14 01:20:50;;;;;;;7.05;4.65;;;11.00;99.90;;;;;;5072250;28;20021;-55
2024/03/14 01:23:16;;;;;;;12.35;4.65;;;11.00;99.90;;;;;;5072091;28;20069;-52
2024/03/14 01:25:42;;;;;;;10.43;4.78;;;10.90;99.90;;;;;;5072368;28;20100;-54
2024/03/14 01:28:09;;;;;;;6.18;4.78;;;10.90;99.90;;;;;;5072553;28;20035;-55
2024/03/14 01:30:34;;;;;;;10.88;4.68;;;10.90;99.90;;;;;;5070976;28;20029;-55
2024/03/14 01:33:00;;;;;;;8.18;4.65;;;10.90;99.90;;;;;;5071993;28;20115;-53
2024/03/14 01:35:26;;;;;;;6.15;4.38;;;10.90;99.90;;;;;;5072197;28;20028;-53
2024/03/14 01:37:51;;;;;;;6.60;4.63;;;10.90;99.90;;;;;;5072490;28;20020;-54
2024/03/14 01:40:17;;;;;;;9.13;5.10;;;10.90;99.90;;;;;;5072325;28;20017;-53
2024/03/14 01:42:44;;;;;;;10.48;4.43;;;10.80;99.90;;;;;;5072438;28;20092;-55
2024/03/14 01:45:14;;;;;;;5.95;4.43;;;10.80;99.90;;;;;;5072361;28;20515;-54
2024/03/14 01:47:40;;;;;;;4.85;3.90;;;10.80;99.90;;;;;;5072342;28;20521;-53
2024/03/14 01:50:08;;;;;;;5.68;4.40;;;10.80;99.90;;;;;;5071907;28;20490;-63
2024/03/14 01:52:36;;;;;;;6.43;4.00;;;10.90;99.90;;;;;;5075489;28;20024;-55
2024/03/14 01:55:02;;;;;;;5.97;4.32;;;10.80;99.90;;;;;;5076254;28;20473;-54
2024/03/14 01:57:31;;;;;;;9.18;4.30;;;10.80;99.90;;;;;;5075944;28;20108;-54
2024/03/14 02:00:01;;;;;;;11.05;4.28;;;10.80;99.90;;;;;;5076325;28;20029;-53
2024/03/14 02:02:27;;;;;;;8.13;4.30;;;10.90;99.90;;;;;;5076002;28;20398;-51
2024/03/14 02:05:38;;;;;;;8.85;4.07;;;10.90;99.90;;;;;;5075123;28;20079;-54
2024/03/14 02:08:04;;;;;;;4.88;3.80;;;10.80;99.90;;;;;;5071322;28;20033;-54
2024/03/14 02:10:30;;;;;;;5.95;4.15;;;10.80;99.90;;;;;;5075744;28;20505;-70
2024/03/14 02:12:56;;;;;;;4.05;3.65;;;10.80;99.90;;;;;;5075633;28;20115;-54
2024/03/14 02:15:25;;;;;;;5.40;3.85;;;10.80;99.90;;;;;;5075747;28;20021;-54
2024/03/14 02:17:50;;;;;;;6.00;4.03;;;10.70;99.90;;;;;;5075655;28;20477;-56
2024/03/14 02:20:16;;;;;;;6.50;3.85;;;10.70;99.90;;;;;;5075694;28;20020;-54
2024/03/14 02:22:43;;;;;;;5.90;3.78;;;10.70;99.90;;;;;;5075542;28;20025;-54
2024/03/14 02:25:08;;;;;;;6.43;3.80;;;10.60;99.90;;;;;;5055920;28;20025;-55
2024/03/14 02:27:35;;;;;;;4.38;3.35;;;10.60;99.90;;;;;;5055831;28;20029;-54
2024/03/14 02:30:00;;;;;;;6.40;4.05;;;10.60;99.90;;;;;;5059753;28;20035;-54
2024/03/14 02:32:26;;;;;;;6.22;4.15;;;10.60;99.90;;;;;;5075721;28;20028;-54
2024/03/14 02:34:52;;;;;;;3.97;3.58;;;10.50;99.90;;;;;;5074592;28;20063;-55
2024/03/14 02:37:18;;;;;;;5.03;4.00;;;10.40;99.90;;;;;;5074696;28;20017;-51
2024/03/14 02:39:44;;;;;;;4.32;3.50;;;10.40;99.90;;;;;;5075202;28;20027;-54
2024/03/14 02:42:11;;;;;;;7.82;3.90;;;10.40;99.90;;;;;;5074975;28;20481;-55
2024/03/14 02:44:37;;;;;;;8.50;3.63;;;10.40;99.90;;;;;;5074982;28;20481;-55
2024/03/14 02:47:03;;;;;;;7.30;3.70;;;10.40;99.90;;;;;;5075031;28;20104;-55
2024/03/14 02:49:29;;;;;;;4.68;3.80;;;10.40;99.90;;;;;;5074484;28;20473;-54
2024/03/14 02:51:55;;;;;;;5.30;3.70;;;10.40;99.90;;;;;;5075011;28;20027;-54
2024/03/14 02:54:21;;;;;;;6.50;4.25;;;10.40;99.90;;;;;;5074044;28;20033;-54
2024/03/14 02:56:49;;;;;;;5.55;3.40;;;10.40;99.90;;;;;;5074196;28;20078;-54
2024/03/14 02:59:16;;;;;;;4.53;4.00;;;10.40;99.90;;;;;;5075048;28;20028;-55
2024/03/14 03:01:42;;;;;;;6.07;4.03;;;10.30;99.90;;;;;;5074757;28;20021;-55
2024/03/14 03:04:11;;;;;;;4.93;3.67;;;10.30;99.90;;;;;;5072908;28;20033;-54
2024/03/14 03:06:44;;;;;;;5.03;3.72;;;10.30;99.90;;;;;;5074873;28;20484;-63
2024/03/14 03:09:11;;;;;;;5.80;3.90;;;10.30;99.90;;;;;;5072872;28;20251;-64
2024/03/14 03:11:37;;;;;;;4.65;3.70;;;10.30;99.90;;;;;;5073535;28;20035;-41
2024/03/14 03:14:05;;;;;;;9.05;4.28;;;10.30;99.90;;;;;;5072560;28;20477;-40
2024/03/14 03:16:31;;;;;;;5.25;3.67;;;10.30;99.90;;;;;;5074821;28;20020;-43
2024/03/14 03:18:58;;;;;;;8.88;4.75;;;10.30;99.90;;;;;;5074599;28;20070;-39
2024/03/14 03:21:24;;;;;;;5.43;4.00;;;10.20;99.90;;;;;;5074423;28;20020;-55
2024/03/14 03:23:50;;;;;;;6.68;4.80;;;10.20;99.90;;;;;;5072681;28;20043;-40
2024/03/14 03:26:16;;;;;;;5.50;4.25;;;10.20;99.90;;;;;;5074396;28;20046;-40
2024/03/14 03:28:41;;;;;;;6.00;4.32;;;10.20;99.90;;;;;;5074438;28;20495;-42
2024/03/14 03:31:08;;;;;;;9.57;4.90;;;10.10;99.90;;;;;;5074145;28;20060;-39
2024/03/14 03:33:35;;;;;;;16.97;6.13;;;10.20;99.90;;;;;;5056716;28;20025;-41
2024/03/14 03:36:04;;;;;;;7.10;4.95;;;10.20;99.90;;;;;;5074252;28;20477;-40
2024/03/14 03:38:36;;;;;;;6.90;4.70;;;10.20;99.90;;;;;;5074182;28;20025;-41
2024/03/14 03:41:02;;;;;;;8.07;5.13;;;10.20;99.90;;;;;;5074528;28;20036;-43
2024/03/14 03:43:28;;;;;;;9.40;5.60;;;10.10;99.90;;;;;;5074165;28;20527;-39
2024/03/14 03:45:57;;;;;;;6.53;4.82;;;10.10;99.90;;;;;;5074437;28;20025;-55
2024/03/14 03:48:26;;;;;;;11.07;4.72;;;10.10;99.90;;;;;;5073803;28;20016;-54
2024/03/14 03:50:52;;;;;;;7.90;5.05;;;10.10;99.90;;;;;;5073894;28;20078;-54
2024/03/14 03:53:18;;;;;;;7.88;5.50;;;10.10;99.90;;;;;;5073917;28;20492;-55
2024/03/14 03:55:44;;;;;;;6.75;4.63;;;10.00;99.90;;;;;;5073775;28;20024;-55
2024/03/14 03:58:11;;;;;;;7.55;4.68;;;10.00;99.90;;;;;;5073833;28;20029;-52
2024/03/14 04:00:44;;;;;;;13.13;5.68;;;10.00;99.90;;;;;;5073767;28;20027;-54
2024/03/14 04:03:11;;;;;;;9.68;5.85;;;10.00;99.90;;;;;;5073758;28;20032;-55
2024/03/14 04:05:45;;;;;;;11.15;6.45;;;10.00;99.90;;;;;;5073873;28;20027;-55
2024/03/14 04:08:11;;;;;;;10.40;6.03;;;9.90;99.90;;;;;;5073719;28;20405;-52
2024/03/14 04:10:37;;;;;;;8.40;5.60;;;9.90;99.90;;;;;;5073447;28;20040;-54
2024/03/14 04:13:04;;;;;;;8.55;5.57;;;9.90;99.90;;;;;;5073339;28;20366;-66
2024/03/14 04:15:30;;;;;;;10.77;6.43;;;9.90;99.90;;;;;;5073182;28;20529;-52
2024/03/14 04:17:56;;;;;;;10.38;6.32;;;9.80;99.90;;;;;;5073373;28;20112;-54
2024/03/14 04:20:33;;;;;;;16.95;6.30;;;9.90;99.90;;;;;;5073309;28;20020;-53
2024/03/14 04:22:59;;;;;;;9.88;6.07;;;9.80;99.90;;;;;;5064040;28;20184;-55
2024/03/14 04:25:25;;;;;;;11.15;6.82;;;9.90;99.90;;;;;;5072622;28;20568;-54
2024/03/14 04:27:52;;;;;;;8.68;5.53;;;9.80;99.90;;;;;;5073294;28;20566;-50
2024/03/14 04:30:21;;;;;;;12.80;6.90;;;9.80;99.90;;;;;;5073392;28;20107;-53
2024/03/14 04:32:50;;;;;;;9.63;6.38;;;9.80;99.90;;;;;;5073510;28;20481;-54
2024/03/14 04:35:17;;;;;;;11.25;7.00;;;9.80;99.90;;;;;;5072534;28;20441;-54
2024/03/14 04:37:44;;;;;;;13.20;6.38;;;9.80;99.90;;;;;;5071796;28;20477;-53
2024/03/14 04:40:13;;;;;;;14.13;7.10;;;9.80;99.90;;;;;;5061818;28;20025;-51
2024/03/14 04:42:43;;;;;;;11.40;7.28;;;9.80;99.90;;;;;;5072919;28;20082;-54
2024/03/14 04:45:09;;;;;;;13.30;6.45;;;9.70;99.90;;;;;;5073200;28;20419;-55
2024/03/14 04:47:36;;;;;;;11.57;6.85;;;9.70;99.90;;;;;;5071520;28;20405;-57
2024/03/14 04:50:08;;;;;;;15.98;7.30;;;9.70;99.90;;;;;;5072816;28;20020;-51
2024/03/14 04:52:37;;;;;;;12.52;6.82;;;9.70;99.90;;;;;;5072518;28;20385;-55
2024/03/14 04:55:08;;;;;;;13.18;6.60;;;9.60;99.90;;;;;;5072714;28;20103;-51
2024/03/14 04:57:34;;;;;;;15.60;8.70;;;9.60;99.90;;;;;;5072218;28;20514;-53
2024/03/14 05:00:01;;;;;;;15.98;8.82;;;9.60;99.90;;;;;;5071931;28;20040;-53
2024/03/14 05:02:29;;;;;;;13.02;7.50;;;9.60;99.90;;;;;;5072156;28;20032;-54
2024/03/14 05:04:55;;;;;;;;;;;9.60;99.90;;;;;;5072964;28;20031;-54
2024/03/14 05:07:21;;;;;;;15.25;7.47;;;9.60;99.90;;;;;;5072058;28;19912;-53
2024/03/14 05:09:47;;;;;;;14.52;7.72;;;9.60;99.90;;;;;;5072344;28;20057;-55
2024/03/14 05:12:13;;;;;;;13.57;7.85;;;9.60;99.90;;;;;;5070586;28;20028;-54
2024/03/14 05:14:39;;;;;;;12.82;7.90;;;9.60;99.90;;;;;;5072707;28;20019;-55
2024/03/14 05:17:05;;;;;;;13.45;7.88;;;9.50;99.90;;;;;;5070633;28;20028;-54
2024/03/14 05:19:30;;;;;;;17.42;7.85;;;9.50;99.90;;;;;;5072187;28;20025;-53
2024/03/14 05:21:56;;;;;;;16.05;8.02;;;9.50;99.90;;;;;;5072019;28;20535;-54
2024/03/14 05:24:24;;;;;;;17.48;8.55;;;9.50;99.90;;;;;;5072426;28;20385;-55
2024/03/14 05:26:49;;;;;;;14.40;8.20;;;9.50;99.90;;;;;;5069975;28;20029;-55
2024/03/14 05:29:15;;;;;;;16.63;8.50;;;9.50;99.90;;;;;;5070904;28;20036;-54
2024/03/14 05:31:41;;;;;;;17.15;8.30;;;9.40;99.90;;;;;;5070914;28;20063;-55
2024/03/14 05:34:08;;;;;;;19.35;8.32;;;9.50;99.90;;;;;;5071993;28;20107;-54
2024/03/14 05:36:34;;;;;;;18.20;8.77;;;9.40;99.90;;;;;;5072030;28;20493;-49
2024/03/14 05:38:59;;;;;;;13.15;7.47;;;9.40;99.90;;;;;;5072200;28;20052;-55
2024/03/14 05:41:25;;;;;;;16.95;8.07;;;9.40;99.90;;;;;;5063313;28;20378;-55
2024/03/14 05:43:50;;;;;;;13.38;7.53;;;9.40;99.90;;;;;;5054495;28;20575;-54
2024/03/14 05:46:16;;;;;;;16.08;9.02;;;9.40;99.90;;;;;;5072384;28;20355;-55
2024/03/14 05:48:42;;;;;;;15.20;7.72;;;9.30;99.90;;;;;;5072258;28;20025;-55
2024/03/14 05:51:09;;;;;;;15.82;8.73;;;9.40;99.90;;;;;;5065785;28;20495;-54
2024/03/14 05:53:35;;;;;;;18.38;8.57;;;9.40;99.90;;;;;;5054621;28;20159;-53
2024/03/14 05:56:02;;;;;;;15.90;8.80;;;9.40;99.90;;;;;;5071061;28;20090;-55
2024/03/14 05:58:31;;;;;;;16.00;7.90;;;9.30;99.90;;;;;;5072028;28;20058;-54
2024/03/14 06:00:57;;;;;;;16.23;8.13;;;9.40;99.90;;;;;;5072030;28;20113;-55
2024/03/14 06:03:22;;;;;;;18.52;8.07;;;9.40;99.90;;;;;;5071863;28;20055;-55
2024/03/14 06:05:52;;;;;;;19.30;8.93;;;9.40;99.90;;;;;;5070794;28;20787;-54
2024/03/14 06:08:18;;;;;;;14.82;8.23;;;9.40;99.90;;;;;;5070726;28;20032;-53
2024/03/14 06:10:43;;;;;;;17.75;8.85;;;9.40;99.90;;;;;;5071513;28;20051;-54
2024/03/14 06:13:09;;;;;;;16.40;8.15;;;9.40;99.90;;;;;;5070166;28;20085;-54
2024/03/14 06:15:35;;;;;;;17.05;7.80;;;9.40;99.90;;;;;;5071766;28;20485;-40
2024/03/14 06:18:02;;;;;;;19.05;8.10;;;9.40;99.90;;;;;;5071840;28;20060;-43
2024/03/14 06:20:28;;;;;;;16.27;8.45;;;9.40;99.90;;;;;;5071811;28;20020;-41
2024/03/14 06:22:53;;;;;;;15.18;8.07;;;9.40;99.90;;;;;;5071812;28;20023;-41
2024/03/14 06:25:19;;;;;;;17.13;7.72;;;9.40;99.90;;;;;;5072039;28;20032;-44
2024/03/14 06:27:45;;;;;;;13.63;7.05;;;9.40;99.90;;;;;;5062028;28;20104;-39
2024/03/14 06:30:11;;;;;;;14.07;7.65;;;9.40;99.90;;;;;;5072023;28;20029;-40
2024/03/14 06:32:39;;;;;;;13.93;8.18;;;9.40;99.90;;;;;;5071582;28;20017;-41
2024/03/14 06:35:06;;;;;;;17.35;7.50;;;9.40;99.90;;;;;;5071760;28;20036;-41
2024/03/14 06:37:33;;;;;;;14.77;8.50;;;9.40;99.90;;;;;;5072403;28;20055;-40
2024/03/14 06:39:59;;;;;;;14.52;7.13;;;9.50;99.90;;;;;;5075419;28;20017;-40
2024/03/14 06:42:25;;;;;;;18.20;7.85;;;9.50;99.90;;;;;;5074565;28;20354;-44
2024/03/14 06:44:51;;;;;;;16.45;6.78;;;9.60;99.90;;;;;;5075034;28;20036;-41
2024/03/14 06:47:18;;;;;;;16.65;8.05;;;9.60;99.90;;;;;;5075288;28;20021;-42
2024/03/14 06:49:44;;;;;;;15.65;7.65;;;9.60;99.90;;;;;;5075514;28;20028;-41
2024/03/14 06:52:10;;;;;;;15.00;8.27;;;9.60;99.90;;;;;;5075373;28;20540;-40
2024/03/14 06:54:36;;;;;;;16.90;8.48;;;9.70;99.90;;;;;;5062634;28;20163;-52
2024/03/14 06:57:02;;;;;;;17.30;7.45;;;9.70;99.90;;;;;;5055208;28;20052;-54
2024/03/14 06:59:28;;;;;;;13.32;7.25;;;9.80;99.90;;;;;;5055266;28;20539;-54
2024/03/14 07:01:55;;;;;;;15.70;7.63;;;9.80;99.90;;;;;;5058507;28;20397;-54
2024/03/14 07:04:21;;;;;;;11.80;6.93;;;9.80;99.90;;;;;;5074787;28;20528;-53
2024/03/14 07:06:47;;;;;;;15.45;8.13;;;9.90;99.90;;;;;;5075123;28;20473;-54
2024/03/14 07:09:17;;;;;;;13.02;7.07;;;9.90;99.90;;;;;;5073841;28;20048;-55
2024/03/14 07:11:46;;;;;;;12.00;6.68;;;9.90;99.90;;;;;;5074738;28;20016;-54
2024/03/14 07:14:12;;;;;;;14.60;7.53;;;10.00;99.90;;;;;;5059398;28;20031;-54
2024/03/14 07:16:42;;;;;;;14.85;6.25;;;10.10;99.90;;;;;;5074643;28;20021;-59
2024/03/14 07:19:07;;;;;;;11.95;6.70;;;10.10;99.90;;;;;;5071898;28;20043;-54
2024/03/14 07:21:33;;;;;;;11.75;6.30;;;10.20;99.90;;;;;;5074855;28;20017;-55
2024/03/14 07:23:59;;;;;;;17.05;6.95;;;10.20;99.90;;;;;;5074453;28;20111;-54
2024/03/14 07:26:32;;;;;;;13.52;6.82;;;10.30;99.90;;;;;;5072855;28;20021;-40
2024/03/14 07:28:58;;;;;;;8.77;6.32;;;10.30;99.90;;;;;;5074463;28;20481;-40
2024/03/14 07:31:30;;;;;;;11.88;6.32;;;10.30;99.90;;;;;;5071378;28;20016;-43
2024/03/14 07:33:59;;;;;;;8.43;5.25;;;10.40;99.90;;;;;;5073135;28;20650;-39
2024/03/14 07:36:29;;;;;;;8.57;6.15;;;10.50;99.90;;;;;;5073851;28;20038;-48
2024/03/14 07:38:56;;;;;;;10.88;6.50;;;10.60;99.90;;;;;;5074582;28;20516;-41
2024/03/14 07:41:22;;;;;;;12.07;5.85;;;10.60;99.90;;;;;;5072233;28;20024;-61
2024/03/14 07:43:53;;;;;;;9.60;5.38;;;10.60;99.90;;;;;;5052998;28;20021;-39
2024/03/14 07:46:19;;;;;;;9.63;6.45;;;10.70;99.90;;;;;;5054280;28;20493;-40
2024/03/14 07:48:48;;;;;;;8.30;5.07;;;10.80;99.90;;;;;;5053068;28;20021;-40
2024/03/14 07:51:15;;;;;;;8.98;5.78;;;10.80;99.90;;;;;;5063574;28;20025;-40
2024/03/14 07:53:40;;;;;;;10.75;6.03;;;10.90;99.90;;;;;;5073710;28;20142;-40
2024/03/14 07:56:09;;;;;;;8.27;5.18;;;11.00;99.90;;;;;;5073952;28;20119;-39
2024/03/14 07:58:36;;;;;;;10.70;4.95;;;11.00;99.90;;;;;;5071991;28;20033;-39
2024/03/14 08:01:09;;;;;;;9.13;6.13;;;11.10;99.90;;;;;;5073267;28;20120;-41
2024/03/14 08:03:42;;;;;;;9.15;5.10;;;11.10;99.90;;;;;;5064139;28;20517;-55
2024/03/14 08:06:11;;;;;;;8.43;5.00;;;11.20;99.90;;;;;;5053783;28;20382;-54
2024/03/14 08:08:41;;;;;;;8.32;5.05;;;11.40;99.90;;;;;;5071527;28;20428;-55
2024/03/14 08:11:11;;;;;;;8.32;5.50;;;11.50;99.90;;;;;;5073124;28;20044;-51
2024/03/14 08:13:39;;;;;;;6.38;4.30;;;11.50;99.90;;;;;;5073731;28;20457;-54
2024/03/14 08:16:08;;;;;;;7.82;4.30;;;11.50;99.90;;;;;;5073450;28;20020;-54
2024/03/14 08:18:41;;;;;;;7.15;4.93;;;11.60;99.90;;;;;;5072201;28;20425;-52
2024/03/14 08:21:09;;;;;;;9.18;4.43;;;11.70;99.90;;;;;;5072067;28;20040;-52
2024/03/14 08:23:35;;;;;;;8.32;4.78;;;11.80;99.90;;;;;;5073362;28;20024;-56
2024/03/14 08:26:01;;;;;;;13.43;4.95;;;11.90;99.90;;;;;;5073178;28;20024;-52
2024/03/14 08:28:26;;;;;;;8.45;4.82;;;12.00;99.90;;;;;;5068604;28;20092;-55
2024/03/14 08:30:52;;;;;;;5.50;3.80;;;12.00;99.90;;;;;;5053275;28;20035;-52
2024/03/14 08:33:18;;;;;;;9.00;4.28;;;12.10;99.90;;;;;;5053710;28;20079;-49
2024/03/14 08:35:44;;;;;;;5.38;3.92;;;12.10;99.90;;;;;;5065323;28;20029;-63
2024/03/14 08:38:13;;;;;;;5.70;3.35;;;12.20;99.90;;;;;;5066352;28;20112;-53
2024/03/14 08:40:39;;;;;;;7.88;3.90;;;12.30;99.90;;;;;;5071339;28;20477;-53
2024/03/14 08:43:05;;;;;;;6.10;3.90;;;12.40;99.90;;;;;;5072799;28;20016;-53
2024/03/14 08:45:35;;;;;;;8.50;4.28;;;12.40;99.90;;;;;;5056113;28;20358;-54
2024/03/14 08:48:01;;;;;;;6.05;4.03;;;12.50;99.90;;;;;;5052914;28;20032;-54
2024/03/14 08:50:27;;;;;;;7.88;4.10;;;12.50;99.90;;;;;;5060266;28;20421;-54
2024/03/14 08:52:55;;;;;;;7.00;3.55;;;12.60;99.90;;;;;;5072335;28;20078;-54
2024/03/14 08:55:23;;;;;;;6.72;4.15;;;12.70;99.90;;;;;;5071019;28;20634;-55
2024/03/14 08:57:52;;;;;;;9.05;3.67;;;12.80;99.90;;;;;;5072664;28;20079;-49
2024/03/14 09:00:21;;;;;;;5.57;3.88;;;12.90;99.90;;;;;;5071786;28;20472;-50
2024/03/14 09:02:48;;;;;;;9.52;4.10;;;13.00;99.90;;;;;;5052554;28;20044;-53
2024/03/14 09:05:14;;;;;;;3.90;3.53;;;13.00;99.90;;;;;;5068126;28;20382;-55
2024/03/14 09:07:41;;;;;;;5.03;2.97;;;13.10;99.90;;;;;;5052833;28;20472;-54
2024/03/14 09:10:16;;;;;;;5.68;3.45;;;13.20;99.90;;;;;;5057212;28;20109;-54
2024/03/14 09:12:48;;;;;;;6.82;3.35;;;13.30;99.90;;;;;;5072015;28;20033;-54
2024/03/14 09:15:14;;;;;;;5.88;3.50;;;13.30;99.90;;;;;;5059817;28;20060;-53
2024/03/14 09:17:41;;;;;;;4.03;3.08;;;13.40;99.90;;;;;;5055786;28;20032;-55
2024/03/14 09:20:14;;;;;;;7.70;3.50;;;13.40;99.90;;;;;;5071725;28;20150;-52
2024/03/14 09:22:43;;;;;;;8.38;3.08;;;13.50;99.90;;;;;;5072191;28;20108;-55
2024/03/14 09:25:12;;;;;;;6.53;3.70;;;13.60;99.90;;;;;;5071489;28;20029;-55
2024/03/14 09:27:39;;;;;;;7.35;3.42;;;13.70;99.90;;;;;;5072314;28;20024;-55
2024/03/14 09:30:08;;;;;;;4.80;3.20;;;13.80;99.90;;;;;;5072071;28;20024;-55
2024/03/14 09:32:35;;;;;;;3.20;2.65;;;13.90;99.90;;;;;;5071811;28;20495;-55
2024/03/14 09:35:07;;;;;;;5.20;2.58;;;14.00;99.90;;;;;;5071829;28;20024;-55
2024/03/14 09:37:36;;;;;;;4.70;3.22;;;14.10;99.90;;;;;;5071880;28;20477;-55
2024/03/14 09:40:05;;;;;;;5.00;2.60;;;14.20;99.90;;;;;;5071234;28;20037;-54
2024/03/14 09:42:32;;;;;;;4.43;2.78;;;14.20;99.90;;;;;;5072097;28;20396;-52
2024/03/14 09:45:03;;;;;;;6.63;3.25;;;14.30;99.90;;;;;;5072091;28;20020;-56
2024/03/14 09:47:41;;;;;;;5.95;2.80;;;14.30;99.90;;;;;;5071992;28;20029;-53
2024/03/14 09:50:17;;;;;;;3.15;2.55;;;14.40;99.90;;;;;;5072052;28;20569;-54
2024/03/14 09:52:44;;;;;;;5.22;2.58;;;14.50;99.90;;;;;;5071817;28;20025;-56
2024/03/14 09:55:14;;;;;;;4.15;3.20;;;14.50;99.90;;;;;;5069017;28;20024;-50
2024/03/14 09:57:42;;;;;;;3.92;2.50;;;14.50;99.90;;;;;;5071963;28;20048;-52
2024/03/14 10:00:11;;;;;;;3.67;2.30;;;14.60;99.90;;;;;;5056260;28;20505;-55
2024/03/14 10:02:38;;;;;;;4.00;2.40;;;14.70;99.90;;;;;;5071613;28;20033;-58
2024/03/14 10:05:13;;;;;;;4.65;2.70;;;14.80;99.90;;;;;;5070670;28;20032;-55
2024/03/14 10:07:39;;;;;;;3.63;2.60;;;15.00;99.90;;;;;;5051994;28;20474;-63
2024/03/14 10:10:06;;;;;;;9.00;2.78;;;15.10;99.90;;;;;;5065668;28;20101;-54
2024/03/14 10:12:32;;;;;;;4.00;2.43;;;15.20;99.90;;;;;;5070506;28;20496;-53
2024/03/14 10:15:12;;;;;;;2.35;2.10;;;15.30;99.90;;;;;;5074459;28;20638;-54
2024/03/14 10:17:42;;;;;;;3.38;2.72;;;15.40;99.90;;;;;;5075952;28;20420;-53
2024/03/14 10:20:13;;;;;;;3.55;2.50;;;15.50;99.90;;;;;;5075632;28;20019;-50
2024/03/14 10:22:42;;;;;;;6.45;3.30;;;15.60;99.90;;;;;;5074041;28;20021;-54
2024/03/14 10:25:17;;;;;;;5.50;2.78;;;15.70;99.90;;;;;;5075093;28;20496;-54
2024/03/14 10:27:48;;;;;;;4.88;2.63;;;15.70;99.90;;;;;;5075313;28;20035;-54
2024/03/14 10:30:14;;;;;;;3.10;2.35;;;15.80;99.90;;;;;;5075599;28;20075;-54
2024/03/14 10:32:40;;;;;;;3.10;2.35;;;15.90;99.90;;;;;;5074260;28;20524;-54
2024/03/14 10:35:14;;;;;;;4.25;2.70;;;15.90;99.90;;;;;;5063245;28;20466;-53
2024/03/14 10:37:43;;;;;;;6.10;2.42;;;15.90;99.90;;;;;;5067105;28;20142;-53
2024/03/14 10:40:20;;;;;;;2.60;2.40;;;16.00;99.90;;;;;;5073891;28;20028;-54
2024/03/14 10:42:48;;;;;;;;;;;15.90;99.90;;;;;;5067526;28;20485;-53
2024/03/14 10:45:16;;;;;;;3.50;2.47;;;15.90;99.90;;;;;;5068981;28;19909;-53
2024/03/14 10:47:46;;;;;;;3.13;2.38;;;15.90;99.90;;;;;;5073908;28;20066;-55
2024/03/14 10:50:16;;;;;;;5.35;3.42;;;16.10;99.90;;;;;;5074648;28;20036;-55
2024/03/14 10:52:49;;;;;;;4.90;2.47;;;16.20;99.90;;;;;;5074534;28;20119;-62
2024/03/14 10:55:21;;;;;;;2.78;2.53;;;16.30;99.90;;;;;;5064307;28;20056;-61
2024/03/14 10:57:48;;;;;;;7.70;2.60;;;16.40;99.90;;;;;;5055135;28;20048;-54
2024/03/14 11:00:19;;;;;;;6.47;3.05;;;16.50;99.90;;;;;;5055047;28;20483;-55
2024/03/14 11:02:52;;;;;;;2.70;2.17;;;16.50;99.90;;;;;;5068764;28;20036;-54
2024/03/14 11:05:20;;;;;;;3.80;1.92;;;16.50;99.90;;;;;;5075099;28;20103;-57
2024/03/14 11:07:47;;;;;;;;;;;16.60;99.90;;;;;;5070077;28;20025;-55
2024/03/14 11:10:28;;;;;;;2.20;2.00;;;16.60;99.90;;;;;;5074332;28;19978;-55
2024/03/14 11:13:14;;;;;;;2.53;2.30;;;16.70;99.90;;;;;;5074634;28;20024;-57
2024/03/14 11:15:40;;;;;;;7.30;2.53;;;16.70;99.90;;;;;;5075036;28;20396;-53
2024/03/14 11:18:16;;;;;;;3.67;2.45;;;16.70;99.90;;;;;;5065837;28;20104;-55
2024/03/14 11:20:49;;;;;;;3.60;2.15;;;16.80;99.90;;;;;;5061713;28;20462;-55
2024/03/14 11:23:19;;;;;;;3.15;2.38;;;17.00;99.90;;;;;;5062127;28;20029;-54
2024/03/14 11:25:55;;;;;;;2.50;2.28;;;17.10;99.90;;;;;;5072597;28;20459;-52
2024/03/14 11:28:24;;;;;;;4.07;2.60;;;17.20;99.90;;;;;;5072313;28;20039;-55
2024/03/14 11:30:56;;;;;;;3.05;2.42;;;17.20;99.90;;;;;;5074648;28;20465;-54
2024/03/14 11:33:26;;;;;;;2.70;2.15;;;17.30;99.90;;;;;;5074037;28;20021;-55
2024/03/14 11:35:55;;;;;;;4.15;2.30;;;17.30;99.90;;;;;;5054501;28;20025;-53
2024/03/14 11:38:20;;;;;;;3.72;2.22;;;17.30;99.90;;;;;;5054278;28;20032;-55
2024/03/14 11:40:53;;;;;;;3.30;2.22;;;17.40;99.90;;;;;;5054181;28;20474;-55
2024/03/14 11:43:24;;;;;;;3.50;2.45;;;17.50;99.90;;;;;;5054482;28;20017;-55
2024/03/14 11:45:58;;;;;;;3.80;2.35;;;17.60;99.90;;;;;;5072792;28;20027;-55
2024/03/14 11:48:24;;;;;;;3.95;1.65;;;17.60;99.90;;;;;;5052856;28;20049;-53
2024/03/14 11:50:54;;;;;;;2.50;2.27;;;17.70;99.90;;;;;;5056653;28;20028;-55
2024/03/14 11:53:20;;;;;;;7.82;2.35;;;17.80;99.90;;;;;;5073439;28;20107;-55
2024/03/14 11:55:46;;;;;;;3.25;2.08;;;18.00;99.90;;;;;;5071329;28;20025;-54
2024/03/14 11:58:15;;;;;;;3.88;2.03;;;18.00;99.90;;;;;;5071267;28;20035;-55
2024/03/14 12:00:42;;;;;;;2.33;1.73;;;18.10;99.90;;;;;;5073737;28;20484;-56
2024/03/14 12:03:11;;;;;;;2.17;1.77;;;18.20;99.90;;;;;;5073585;28;20362;-53
2024/03/14 12:05:42;;;;;;;1.60;1.50;;;18.10;99.90;;;;;;5073445;28;20028;-55
2024/03/14 12:08:12;;;;;;;4.88;2.17;;;18.00;99.90;;;;;;5073560;28;20154;-56
2024/03/14 12:10:38;;;;;;;2.65;1.92;;;17.90;99.90;;;;;;5073361;28;20036;-55
2024/03/14 12:13:11;;;;;;;5.38;1.67;;;17.90;99.90;;;;;;5072421;28;20032;-55
2024/03/14 12:15:37;;;;;;;10.45;1.95;;;18.00;99.90;;;;;;5073179;28;20552;-56
2024/03/14 12:18:03;;;;;;;2.88;1.95;;;18.20;99.90;;;;;;5073212;28;20494;-56
2024/03/14 12:20:28;;;;;;;1.50;1.40;;;18.30;99.90;;;;;;5073606;28;20496;-55
2024/03/14 12:22:56;;;;;;;3.45;2.10;;;18.40;99.90;;;;;;5073472;28;20031;-56
2024/03/14 12:25:22;;;;;;;2.20;1.40;;;18.40;99.90;;;;;;5073232;28;20077;-60
2024/03/14 12:27:52;;;;;;;4.63;1.85;;;18.50;99.90;;;;;;5073651;28;20435;-55
2024/03/14 12:30:20;;;;;;;3.15;1.70;;;18.50;99.90;;;;;;5073439;28;20020;-53
2024/03/14 12:32:54;;;;;;;5.25;2.08;;;18.40;99.90;;;;;;5071819;28;20059;-56
2024/03/14 12:35:22;;;;;;;2.72;1.65;;;18.50;99.90;;;;;;5071137;28;20056;-55
2024/03/14 12:37:48;;;;;;;1.63;1.50;;;18.50;99.90;;;;;;5073329;28;20473;-56
2024/03/14 12:40:17;;;;;;;2.10;1.30;;;18.60;99.90;;;;;;5073117;28;20074;-56
2024/03/14 12:42:47;;;;;;;1.92;1.42;;;18.60;99.90;;;;;;5072956;28;20074;-56
2024/03/14 12:45:16;;;;;;;2.03;1.83;;;18.60;99.90;;;;;;5073317;28;20020;-57
2024/03/14 12:47:43;;;;;;;2.05;1.75;;;18.60;99.90;;;;;;5073207;28;20464;-55
2024/03/14 12:50:19;;;;;;;2.63;1.65;;;18.50;99.90;;;;;;5072663;28;20028;-55